Albany, New York
Traffic Map
Current Weather Conditions
Albany, New York
Clear
Clear
-25°
Feels Like: -37°
Wind Chill: -37° Ceiling: Unl
Heat Index: -25° Visibility: 10mi
Dew Point: -32° Wind: 13mph
Humidity: 53% Direction: 300° (WNW)
Pressure: 30.45in Gusts: 0mph
Raw Report DataKALB 140951Z 30011KT 10SM CLR M25/M32 A3045 RMK AO2 SLP321 T12501322
Traffic Incident Summary
Active as of:
Severity:
Category:
InformationThere was an issue retrieving the traffic information for this location. Please try a different location or try again shortly.
Advertisements
Track Severe Weather on mobile